sensor_id;sensor_type;location;lat;lon;timestamp;temperature;humidity
21271;DHT22;10795;50.796;3.860;2023-11-21T00:00:37;10.50;99.90
21271;DHT22;10795;50.796;3.860;2023-11-21T00:03:05;10.60;99.90
21271;DHT22;10795;50.796;3.860;2023-11-21T00:05:32;10.30;99.90
21271;DHT22;10795;50.796;3.860;2023-11-21T00:07:57;10.30;99.90
21271;DHT22;10795;50.796;3.860;2023-11-21T00:10:23;10.30;99.90
21271;DHT22;10795;50.796;3.860;2023-11-21T00:12:49;10.00;99.90
21271;DHT22;10795;50.796;3.860;2023-11-21T00:15:14;10.00;99.90
21271;DHT22;10795;50.796;3.860;2023-11-21T00:17:40;9.90;99.90
21271;DHT22;10795;50.796;3.860;2023-11-21T00:20:09;10.10;99.90
21271;DHT22;10795;50.796;3.860;2023-11-21T00:22:38;10.10;99.90
21271;DHT22;10795;50.796;3.860;2023-11-21T00:25:06;10.20;99.90
21271;DHT22;10795;50.796;3.860;2023-11-21T00:27:34;10.40;99.90
21271;DHT22;10795;50.796;3.860;2023-11-21T00:30:03;10.60;99.90
21271;DHT22;10795;50.796;3.860;2023-11-21T00:32:35;10.70;99.90
21271;DHT22;10795;50.796;3.860;2023-11-21T00:35:03;10.70;99.90
21271;DHT22;10795;50.796;3.860;2023-11-21T00:37:29;10.70;99.90
21271;DHT22;10795;50.796;3.860;2023-11-21T00:39:58;10.90;99.90
21271;DHT22;10795;50.796;3.860;2023-11-21T00:42:27;11.00;99.90
21271;DHT22;10795;50.796;3.860;2023-11-21T00:44:55;11.10;99.90
21271;DHT22;10795;50.796;3.860;2023-11-21T00:47:21;11.10;99.90
21271;DHT22;10795;50.796;3.860;2023-11-21T00:49:49;11.00;99.90
21271;DHT22;10795;50.796;3.860;2023-11-21T00:52:19;11.00;99.90
21271;DHT22;10795;50.796;3.860;2023-11-21T00:54:45;10.70;99.90
21271;DHT22;10795;50.796;3.860;2023-11-21T00:57:11;10.80;99.90
21271;DHT22;10795;50.796;3.860;2023-11-21T00:59:37;10.80;99.90
21271;DHT22;10795;50.796;3.860;2023-11-21T01:02:03;10.70;99.90
21271;DHT22;10795;50.796;3.860;2023-11-21T01:04:32;10.50;99.90
21271;DHT22;10795;50.796;3.860;2023-11-21T01:06:58;10.20;99.90
21271;DHT22;10795;50.796;3.860;2023-11-21T01:09:23;10.10;99.90
21271;DHT22;10795;50.796;3.860;2023-11-21T01:11:49;9.80;99.90
21271;DHT22;10795;50.796;3.860;2023-11-21T01:14:15;9.60;99.90
21271;DHT22;10795;50.796;3.860;2023-11-21T01:16:43;9.70;99.90
21271;DHT22;10795;50.796;3.860;2023-11-21T01:19:08;9.70;99.90
21271;DHT22;10795;50.796;3.860;2023-11-21T01:21:34;9.90;99.90
21271;DHT22;10795;50.796;3.860;2023-11-21T01:24:00;9.90;99.90
21271;DHT22;10795;50.796;3.860;2023-11-21T01:26:26;10.10;99.90
21271;DHT22;10795;50.796;3.860;2023-11-21T01:28:51;10.10;99.90
21271;DHT22;10795;50.796;3.860;2023-11-21T01:31:17;10.00;99.90
21271;DHT22;10795;50.796;3.860;2023-11-21T01:33:43;10.20;99.90
21271;DHT22;10795;50.796;3.860;2023-11-21T01:36:13;10.20;99.90
21271;DHT22;10795;50.796;3.860;2023-11-21T01:38:41;10.10;99.90
21271;DHT22;10795;50.796;3.860;2023-11-21T01:41:10;10.00;99.90
21271;DHT22;10795;50.796;3.860;2023-11-21T01:43:36;9.90;99.90
21271;DHT22;10795;50.796;3.860;2023-11-21T01:46:02;9.90;99.90
21271;DHT22;10795;50.796;3.860;2023-11-21T01:48:29;10.00;99.90
21271;DHT22;10795;50.796;3.860;2023-11-21T01:50:55;10.30;99.90
21271;DHT22;10795;50.796;3.860;2023-11-21T01:53:24;10.60;99.90
21271;DHT22;10795;50.796;3.860;2023-11-21T01:55:53;10.70;99.90
21271;DHT22;10795;50.796;3.860;2023-11-21T01:58:22;10.80;99.90
21271;DHT22;10795;50.796;3.860;2023-11-21T02:00:48;10.60;99.90
21271;DHT22;10795;50.796;3.860;2023-11-21T02:03:16;10.50;99.90
21271;DHT22;10795;50.796;3.860;2023-11-21T02:05:42;10.60;99.90
21271;DHT22;10795;50.796;3.860;2023-11-21T02:08:10;10.70;99.90
21271;DHT22;10795;50.796;3.860;2023-11-21T02:10:38;10.80;99.90
21271;DHT22;10795;50.796;3.860;2023-11-21T02:13:06;10.80;99.90
21271;DHT22;10795;50.796;3.860;2023-11-21T02:15:34;10.80;99.90
21271;DHT22;10795;50.796;3.860;2023-11-21T02:18:00;10.70;99.90
21271;DHT22;10795;50.796;3.860;2023-11-21T02:20:26;10.50;99.90
21271;DHT22;10795;50.796;3.860;2023-11-21T02:22:57;10.40;99.90
21271;DHT22;10795;50.796;3.860;2023-11-21T02:25:29;10.40;99.90
21271;DHT22;10795;50.796;3.860;2023-11-21T02:27:58;10.70;99.90
21271;DHT22;10795;50.796;3.860;2023-11-21T02:30:24;10.70;99.90
21271;DHT22;10795;50.796;3.860;2023-11-21T02:33:00;10.80;99.90
21271;DHT22;10795;50.796;3.860;2023-11-21T02:35:27;10.80;99.90
21271;DHT22;10795;50.796;3.860;2023-11-21T02:37:53;10.80;99.90
21271;DHT22;10795;50.796;3.860;2023-11-21T02:40:20;10.70;99.90
21271;DHT22;10795;50.796;3.860;2023-11-21T02:42:51;10.60;99.90
21271;DHT22;10795;50.796;3.860;2023-11-21T02:45:19;10.50;99.90
21271;DHT22;10795;50.796;3.860;2023-11-21T02:47:48;10.50;99.90
21271;DHT22;10795;50.796;3.860;2023-11-21T02:50:18;10.50;99.90
21271;DHT22;10795;50.796;3.860;2023-11-21T02:52:47;10.70;99.90
21271;DHT22;10795;50.796;3.860;2023-11-21T02:55:13;10.70;99.90
21271;DHT22;10795;50.796;3.860;2023-11-21T02:57:41;10.70;99.90
21271;DHT22;10795;50.796;3.860;2023-11-21T03:00:07;10.80;99.90
21271;DHT22;10795;50.796;3.860;2023-11-21T03:02:35;10.80;99.90
21271;DHT22;10795;50.796;3.860;2023-11-21T03:05:06;10.80;99.90
21271;DHT22;10795;50.796;3.860;2023-11-21T03:07:34;10.50;99.90
21271;DHT22;10795;50.796;3.860;2023-11-21T03:10:00;10.30;99.90
21271;DHT22;10795;50.796;3.860;2023-11-21T03:12:29;10.30;99.90
21271;DHT22;10795;50.796;3.860;2023-11-21T03:14:57;10.50;99.90
21271;DHT22;10795;50.796;3.860;2023-11-21T03:17:27;10.70;99.90
21271;DHT22;10795;50.796;3.860;2023-11-21T03:19:52;10.80;99.90
21271;DHT22;10795;50.796;3.860;2023-11-21T03:22:18;10.90;99.90
21271;DHT22;10795;50.796;3.860;2023-11-21T03:24:46;10.70;99.90
21271;DHT22;10795;50.796;3.860;2023-11-21T03:27:12;10.50;99.90
21271;DHT22;10795;50.796;3.860;2023-11-21T03:29:38;10.40;99.90
21271;DHT22;10795;50.796;3.860;2023-11-21T03:32:04;10.30;99.90
21271;DHT22;10795;50.796;3.860;2023-11-21T03:34:33;10.40;99.90
21271;DHT22;10795;50.796;3.860;2023-11-21T03:37:01;10.50;99.90
21271;DHT22;10795;50.796;3.860;2023-11-21T03:39:26;10.70;99.90
21271;DHT22;10795;50.796;3.860;2023-11-21T03:41:54;10.70;99.90
21271;DHT22;10795;50.796;3.860;2023-11-21T03:44:23;10.70;99.90
21271;DHT22;10795;50.796;3.860;2023-11-21T03:46:48;10.70;99.90
21271;DHT22;10795;50.796;3.860;2023-11-21T03:49:14;10.60;99.90
21271;DHT22;10795;50.796;3.860;2023-11-21T03:51:41;10.40;99.90
21271;DHT22;10795;50.796;3.860;2023-11-21T03:54:11;10.20;99.90
21271;DHT22;10795;50.796;3.860;2023-11-21T03:56:39;9.90;99.90
21271;DHT22;10795;50.796;3.860;2023-11-21T03:59:08;9.70;99.90
21271;DHT22;10795;50.796;3.860;2023-11-21T04:01:33;9.90;99.90
21271;DHT22;10795;50.796;3.860;2023-11-21T04:04:02;10.00;99.90
21271;DHT22;10795;50.796;3.860;2023-11-21T04:06:28;10.10;99.90
21271;DHT22;10795;50.796;3.860;2023-11-21T04:08:53;10.10;99.90
21271;DHT22;10795;50.796;3.860;2023-11-21T04:11:19;10.10;99.90
21271;DHT22;10795;50.796;3.860;2023-11-21T04:13:44;10.10;99.90
21271;DHT22;10795;50.796;3.860;2023-11-21T04:16:14;10.20;99.90
21271;DHT22;10795;50.796;3.860;2023-11-21T04:18:42;10.20;99.90
21271;DHT22;10795;50.796;3.860;2023-11-21T04:21:08;10.30;99.90
21271;DHT22;10795;50.796;3.860;2023-11-21T04:23:36;10.40;99.90
21271;DHT22;10795;50.796;3.860;2023-11-21T04:26:01;10.30;99.90
21271;DHT22;10795;50.796;3.860;2023-11-21T04:28:27;10.20;99.90
21271;DHT22;10795;50.796;3.860;2023-11-21T04:30:55;10.20;99.90
21271;DHT22;10795;50.796;3.860;2023-11-21T04:33:23;10.20;99.90
21271;DHT22;10795;50.796;3.860;2023-11-21T04:35:51;10.40;99.90
21271;DHT22;10795;50.796;3.860;2023-11-21T04:38:16;10.70;99.90
21271;DHT22;10795;50.796;3.860;2023-11-21T04:40:44;10.70;99.90
21271;DHT22;10795;50.796;3.860;2023-11-21T04:43:10;10.60;99.90
21271;DHT22;10795;50.796;3.860;2023-11-21T04:45:35;10.50;99.90
21271;DHT22;10795;50.796;3.860;2023-11-21T04:48:04;10.40;99.90
21271;DHT22;10795;50.796;3.860;2023-11-21T04:50:29;10.40;99.90
21271;DHT22;10795;50.796;3.860;2023-11-21T04:52:55;10.40;99.90
21271;DHT22;10795;50.796;3.860;2023-11-21T04:55:20;10.10;99.90
21271;DHT22;10795;50.796;3.860;2023-11-21T04:57:46;10.00;99.90
21271;DHT22;10795;50.796;3.860;2023-11-21T05:00:13;9.90;99.90
21271;DHT22;10795;50.796;3.860;2023-11-21T05:02:43;10.00;99.90
21271;DHT22;10795;50.796;3.860;2023-11-21T05:05:14;10.10;99.90
21271;DHT22;10795;50.796;3.860;2023-11-21T05:07:42;10.20;99.90
21271;DHT22;10795;50.796;3.860;2023-11-21T05:10:08;10.30;99.90
21271;DHT22;10795;50.796;3.860;2023-11-21T05:12:37;10.50;99.90
21271;DHT22;10795;50.796;3.860;2023-11-21T05:15:04;10.60;99.90
21271;DHT22;10795;50.796;3.860;2023-11-21T05:17:33;10.70;99.90
21271;DHT22;10795;50.796;3.860;2023-11-21T05:19:59;10.60;99.90
21271;DHT22;10795;50.796;3.860;2023-11-21T05:22:29;10.60;99.90
21271;DHT22;10795;50.796;3.860;2023-11-21T05:24:55;10.50;99.90
21271;DHT22;10795;50.796;3.860;2023-11-21T05:27:24;10.50;99.90
21271;DHT22;10795;50.796;3.860;2023-11-21T05:29:52;10.50;99.90
21271;DHT22;10795;50.796;3.860;2023-11-21T05:32:18;10.40;99.90
21271;DHT22;10795;50.796;3.860;2023-11-21T05:34:46;10.30;99.90
21271;DHT22;10795;50.796;3.860;2023-11-21T05:37:11;10.20;99.90
21271;DHT22;10795;50.796;3.860;2023-11-21T05:39:37;10.30;99.90
21271;DHT22;10795;50.796;3.860;2023-11-21T05:42:03;10.30;99.90
21271;DHT22;10795;50.796;3.860;2023-11-21T05:44:29;10.20;99.90
21271;DHT22;10795;50.796;3.860;2023-11-21T05:46:55;10.20;99.90
21271;DHT22;10795;50.796;3.860;2023-11-21T05:49:26;10.30;99.90
21271;DHT22;10795;50.796;3.860;2023-11-21T05:51:55;10.50;99.90
21271;DHT22;10795;50.796;3.860;2023-11-21T05:54:21;10.50;99.90
21271;DHT22;10795;50.796;3.860;2023-11-21T05:56:49;10.60;99.90
21271;DHT22;10795;50.796;3.860;2023-11-21T05:59:17;10.40;99.90
21271;DHT22;10795;50.796;3.860;2023-11-21T06:01:43;10.30;99.90
21271;DHT22;10795;50.796;3.860;2023-11-21T06:04:11;10.30;99.90
21271;DHT22;10795;50.796;3.860;2023-11-21T06:06:36;10.40;99.90
21271;DHT22;10795;50.796;3.860;2023-11-21T06:09:05;10.50;99.90
21271;DHT22;10795;50.796;3.860;2023-11-21T06:11:37;10.50;99.90
21271;DHT22;10795;50.796;3.860;2023-11-21T06:14:05;10.60;99.90
21271;DHT22;10795;50.796;3.860;2023-11-21T06:16:33;10.50;99.90
21271;DHT22;10795;50.796;3.860;2023-11-21T06:19:01;10.60;99.90
21271;DHT22;10795;50.796;3.860;2023-11-21T06:21:27;10.60;99.90
21271;DHT22;10795;50.796;3.860;2023-11-21T06:23:52;10.30;99.90
21271;DHT22;10795;50.796;3.860;2023-11-21T06:26:20;10.10;99.90
21271;DHT22;10795;50.796;3.860;2023-11-21T06:28:49;10.00;99.90
21271;DHT22;10795;50.796;3.860;2023-11-21T06:31:19;9.90;99.90
21271;DHT22;10795;50.796;3.860;2023-11-21T06:33:44;9.80;99.90
21271;DHT22;10795;50.796;3.860;2023-11-21T06:36:10;9.70;99.90
21271;DHT22;10795;50.796;3.860;2023-11-21T06:38:38;9.70;99.90
21271;DHT22;10795;50.796;3.860;2023-11-21T06:41:04;9.60;99.90
21271;DHT22;10795;50.796;3.860;2023-11-21T06:43:29;9.70;99.90
21271;DHT22;10795;50.796;3.860;2023-11-21T06:45:56;9.70;99.90
21271;DHT22;10795;50.796;3.860;2023-11-21T06:48:22;9.70;99.90
21271;DHT22;10795;50.796;3.860;2023-11-21T06:50:48;9.80;99.90
21271;DHT22;10795;50.796;3.860;2023-11-21T06:53:14;9.80;99.90
21271;DHT22;10795;50.796;3.860;2023-11-21T06:55:40;9.80;99.90
21271;DHT22;10795;50.796;3.860;2023-11-21T06:58:06;9.80;99.90
21271;DHT22;10795;50.796;3.860;2023-11-21T07:00:31;9.80;99.90
21271;DHT22;10795;50.796;3.860;2023-11-21T07:02:57;9.90;99.90
21271;DHT22;10795;50.796;3.860;2023-11-21T07:05:22;9.90;99.90
21271;DHT22;10795;50.796;3.860;2023-11-21T07:07:48;9.90;99.90
21271;DHT22;10795;50.796;3.860;2023-11-21T07:10:14;9.80;99.90
21271;DHT22;10795;50.796;3.860;2023-11-21T07:12:43;9.80;99.90
21271;DHT22;10795;50.796;3.860;2023-11-21T07:15:08;9.80;99.90
21271;DHT22;10795;50.796;3.860;2023-11-21T07:17:37;9.70;99.90
21271;DHT22;10795;50.796;3.860;2023-11-21T07:20:05;9.70;99.90
21271;DHT22;10795;50.796;3.860;2023-11-21T07:22:32;9.80;99.90
21271;DHT22;10795;50.796;3.860;2023-11-21T07:24:59;9.80;99.90
21271;DHT22;10795;50.796;3.860;2023-11-21T07:27:25;9.80;99.90
21271;DHT22;10795;50.796;3.860;2023-11-21T07:29:51;10.00;99.90
21271;DHT22;10795;50.796;3.860;2023-11-21T07:32:19;10.00;99.90
21271;DHT22;10795;50.796;3.860;2023-11-21T07:34:46;10.10;99.90
21271;DHT22;10795;50.796;3.860;2023-11-21T07:37:11;10.10;99.90
21271;DHT22;10795;50.796;3.860;2023-11-21T07:39:40;10.00;99.90
21271;DHT22;10795;50.796;3.860;2023-11-21T07:42:09;10.10;99.90
21271;DHT22;10795;50.796;3.860;2023-11-21T07:44:36;10.10;99.90
21271;DHT22;10795;50.796;3.860;2023-11-21T07:47:01;10.10;99.90
21271;DHT22;10795;50.796;3.860;2023-11-21T07:49:27;10.00;99.90
21271;DHT22;10795;50.796;3.860;2023-11-21T07:51:53;10.00;99.90
21271;DHT22;10795;50.796;3.860;2023-11-21T07:54:19;10.10;99.90
21271;DHT22;10795;50.796;3.860;2023-11-21T07:56:47;10.10;99.90
21271;DHT22;10795;50.796;3.860;2023-11-21T07:59:12;10.10;99.90
21271;DHT22;10795;50.796;3.860;2023-11-21T08:01:39;10.10;99.90
21271;DHT22;10795;50.796;3.860;2023-11-21T08:04:08;10.20;99.90
21271;DHT22;10795;50.796;3.860;2023-11-21T08:06:34;10.20;99.90
21271;DHT22;10795;50.796;3.860;2023-11-21T08:09:04;10.20;99.90
21271;DHT22;10795;50.796;3.860;2023-11-21T08:11:31;10.20;99.90
21271;DHT22;10795;50.796;3.860;2023-11-21T08:13:58;10.30;99.90
21271;DHT22;10795;50.796;3.860;2023-11-21T08:16:24;10.50;99.90
21271;DHT22;10795;50.796;3.860;2023-11-21T08:18:52;10.60;99.90
21271;DHT22;10795;50.796;3.860;2023-11-21T08:21:19;10.70;99.90
21271;DHT22;10795;50.796;3.860;2023-11-21T08:23:45;10.70;99.90
21271;DHT22;10795;50.796;3.860;2023-11-21T08:26:11;10.70;99.90
21271;DHT22;10795;50.796;3.860;2023-11-21T08:28:36;10.80;99.90
21271;DHT22;10795;50.796;3.860;2023-11-21T08:31:02;10.80;99.90
21271;DHT22;10795;50.796;3.860;2023-11-21T08:33:28;10.80;99.90
21271;DHT22;10795;50.796;3.860;2023-11-21T08:35:53;10.90;99.90
21271;DHT22;10795;50.796;3.860;2023-11-21T08:38:19;10.90;99.90
21271;DHT22;10795;50.796;3.860;2023-11-21T08:40:45;10.90;99.90
21271;DHT22;10795;50.796;3.860;2023-11-21T08:43:13;10.90;99.90
21271;DHT22;10795;50.796;3.860;2023-11-21T08:45:40;11.00;99.90
21271;DHT22;10795;50.796;3.860;2023-11-21T08:48:05;11.00;99.90
21271;DHT22;10795;50.796;3.860;2023-11-21T08:50:31;11.00;99.90
21271;DHT22;10795;50.796;3.860;2023-11-21T08:52:59;10.90;99.90
21271;DHT22;10795;50.796;3.860;2023-11-21T08:55:26;10.90;99.90
21271;DHT22;10795;50.796;3.860;2023-11-21T08:57:53;10.90;99.90
21271;DHT22;10795;50.796;3.860;2023-11-21T09:00:18;10.80;99.90
21271;DHT22;10795;50.796;3.860;2023-11-21T09:02:46;10.70;99.90
21271;DHT22;10795;50.796;3.860;2023-11-21T09:05:13;10.70;99.90
21271;DHT22;10795;50.796;3.860;2023-11-21T09:07:41;10.80;99.90
21271;DHT22;10795;50.796;3.860;2023-11-21T09:10:07;10.80;99.90
21271;DHT22;10795;50.796;3.860;2023-11-21T09:12:34;10.80;99.90
21271;DHT22;10795;50.796;3.860;2023-11-21T09:15:04;10.80;99.90
21271;DHT22;10795;50.796;3.860;2023-11-21T09:17:31;10.80;99.90
21271;DHT22;10795;50.796;3.860;2023-11-21T09:19:57;10.90;99.90
21271;DHT22;10795;50.796;3.860;2023-11-21T09:22:22;11.00;99.90
21271;DHT22;10795;50.796;3.860;2023-11-21T09:24:50;10.90;99.90
21271;DHT22;10795;50.796;3.860;2023-11-21T09:27:16;11.00;99.90
21271;DHT22;10795;50.796;3.860;2023-11-21T09:29:42;11.00;99.90
21271;DHT22;10795;50.796;3.860;2023-11-21T09:32:08;11.00;99.90
21271;DHT22;10795;50.796;3.860;2023-11-21T09:34:39;11.00;99.90
21271;DHT22;10795;50.796;3.860;2023-11-21T09:37:04;11.10;99.90
21271;DHT22;10795;50.796;3.860;2023-11-21T09:39:32;11.10;99.90
21271;DHT22;10795;50.796;3.860;2023-11-21T09:42:04;11.00;99.90
21271;DHT22;10795;50.796;3.860;2023-11-21T09:47:09;11.00;99.90
21271;DHT22;10795;50.796;3.860;2023-11-21T09:49:36;11.10;99.90
21271;DHT22;10795;50.796;3.860;2023-11-21T09:52:02;11.10;99.90
21271;DHT22;10795;50.796;3.860;2023-11-21T09:54:31;11.00;99.90
21271;DHT22;10795;50.796;3.860;2023-11-21T09:56:59;11.00;99.90
21271;DHT22;10795;50.796;3.860;2023-11-21T09:59:25;11.30;99.90
21271;DHT22;10795;50.796;3.860;2023-11-21T10:01:55;11.40;99.90
21271;DHT22;10795;50.796;3.860;2023-11-21T10:04:23;11.50;99.90
21271;DHT22;10795;50.796;3.860;2023-11-21T10:06:49;11.60;99.90
21271;DHT22;10795;50.796;3.860;2023-11-21T10:09:15;11.60;99.90
21271;DHT22;10795;50.796;3.860;2023-11-21T10:11:42;11.70;99.90
21271;DHT22;10795;50.796;3.860;2023-11-21T10:14:12;11.70;99.90
21271;DHT22;10795;50.796;3.860;2023-11-21T10:16:39;11.70;99.90
21271;DHT22;10795;50.796;3.860;2023-11-21T10:30:11;12.10;99.90
21271;DHT22;10795;50.796;3.860;2023-11-21T10:32:42;12.20;99.90
21271;DHT22;10795;50.796;3.860;2023-11-21T10:35:08;12.30;99.90
21271;DHT22;10795;50.796;3.860;2023-11-21T10:37:37;12.50;99.90
21271;DHT22;10795;50.796;3.860;2023-11-21T10:40:06;12.60;99.90
21271;DHT22;10795;50.796;3.860;2023-11-21T10:42:37;12.60;99.90
21271;DHT22;10795;50.796;3.860;2023-11-21T10:45:04;12.80;99.90
21271;DHT22;10795;50.796;3.860;2023-11-21T10:47:30;12.70;99.90
21271;DHT22;10795;50.796;3.860;2023-11-21T10:50:01;12.60;99.90
21271;DHT22;10795;50.796;3.860;2023-11-21T10:52:27;12.60;99.90
21271;DHT22;10795;50.796;3.860;2023-11-21T10:54:53;12.50;99.90
21271;DHT22;10795;50.796;3.860;2023-11-21T10:57:18;12.60;99.90
21271;DHT22;10795;50.796;3.860;2023-11-21T10:59:47;12.50;99.90
21271;DHT22;10795;50.796;3.860;2023-11-21T11:02:25;12.60;99.90
21271;DHT22;10795;50.796;3.860;2023-11-21T11:04:55;12.60;99.90
21271;DHT22;10795;50.796;3.860;2023-11-21T11:07:25;12.70;99.90
21271;DHT22;10795;50.796;3.860;2023-11-21T11:09:52;12.70;99.90
21271;DHT22;10795;50.796;3.860;2023-11-21T11:12:20;12.80;99.90
21271;DHT22;10795;50.796;3.860;2023-11-21T11:14:47;12.70;99.90
21271;DHT22;10795;50.796;3.860;2023-11-21T11:17:13;12.60;99.90
21271;DHT22;10795;50.796;3.860;2023-11-21T11:19:41;12.70;99.90
21271;DHT22;10795;50.796;3.860;2023-11-21T11:35:17;12.40;99.90
21271;DHT22;10795;50.796;3.860;2023-11-21T11:37:44;12.50;99.90
21271;DHT22;10795;50.796;3.860;2023-11-21T11:40:12;12.50;99.90
21271;DHT22;10795;50.796;3.860;2023-11-21T11:42:38;12.70;99.90
21271;DHT22;10795;50.796;3.860;2023-11-21T11:45:19;12.70;99.90
21271;DHT22;10795;50.796;3.860;2023-11-21T11:47:45;12.60;99.90
21271;DHT22;10795;50.796;3.860;2023-11-21T11:50:17;12.60;99.90
21271;DHT22;10795;50.796;3.860;2023-11-21T11:52:46;12.50;99.90
21271;DHT22;10795;50.796;3.860;2023-11-21T11:55:16;12.40;99.90
21271;DHT22;10795;50.796;3.860;2023-11-21T11:57:45;12.40;99.90
21271;DHT22;10795;50.796;3.860;2023-11-21T12:02:42;12.30;99.90
21271;DHT22;10795;50.796;3.860;2023-11-21T12:05:11;12.10;99.90
21271;DHT22;10795;50.796;3.860;2023-11-21T12:07:39;12.10;99.90
21271;DHT22;10795;50.796;3.860;2023-11-21T12:10:10;12.00;99.90
21271;DHT22;10795;50.796;3.860;2023-11-21T12:12:36;12.10;99.90
21271;DHT22;10795;50.796;3.860;2023-11-21T12:15:04;12.00;99.90
21271;DHT22;10795;50.796;3.860;2023-11-21T12:17:30;12.00;99.90
21271;DHT22;10795;50.796;3.860;2023-11-21T12:20:02;11.80;99.90
21271;DHT22;10795;50.796;3.860;2023-11-21T12:22:29;11.80;99.90
21271;DHT22;10795;50.796;3.860;2023-11-21T12:24:56;11.70;99.90
21271;DHT22;10795;50.796;3.860;2023-11-21T12:27:21;11.80;99.90
21271;DHT22;10795;50.796;3.860;2023-11-21T12:29:50;11.80;99.90
21271;DHT22;10795;50.796;3.860;2023-11-21T12:32:15;11.70;99.90
21271;DHT22;10795;50.796;3.860;2023-11-21T12:34:45;11.90;99.90
21271;DHT22;10795;50.796;3.860;2023-11-21T12:37:11;11.90;99.90
21271;DHT22;10795;50.796;3.860;2023-11-21T12:39:36;11.90;99.90
21271;DHT22;10795;50.796;3.860;2023-11-21T12:42:03;11.90;99.90
21271;DHT22;10795;50.796;3.860;2023-11-21T12:44:29;12.10;99.90
21271;DHT22;10795;50.796;3.860;2023-11-21T12:46:54;12.10;99.90
21271;DHT22;10795;50.796;3.860;2023-11-21T12:49:21;12.00;99.90
21271;DHT22;10795;50.796;3.860;2023-11-21T12:51:47;12.10;99.90
21271;DHT22;10795;50.796;3.860;2023-11-21T12:54:13;12.40;99.90
21271;DHT22;10795;50.796;3.860;2023-11-21T12:56:39;12.00;99.90
21271;DHT22;10795;50.796;3.860;2023-11-21T12:59:04;12.10;99.90
21271;DHT22;10795;50.796;3.860;2023-11-21T13:01:30;11.90;99.90
21271;DHT22;10795;50.796;3.860;2023-11-21T13:04:01;11.90;99.90
21271;DHT22;10795;50.796;3.860;2023-11-21T13:06:27;11.90;99.90
21271;DHT22;10795;50.796;3.860;2023-11-21T13:08:59;11.90;99.90
21271;DHT22;10795;50.796;3.860;2023-11-21T13:11:27;11.90;99.90
21271;DHT22;10795;50.796;3.860;2023-11-21T13:13:57;12.00;99.90
21271;DHT22;10795;50.796;3.860;2023-11-21T13:16:22;11.90;99.90
21271;DHT22;10795;50.796;3.860;2023-11-21T13:18:49;11.80;99.90
21271;DHT22;10795;50.796;3.860;2023-11-21T13:21:20;11.80;99.90
21271;DHT22;10795;50.796;3.860;2023-11-21T13:23:49;11.70;99.90
21271;DHT22;10795;50.796;3.860;2023-11-21T13:26:20;11.70;99.90
21271;DHT22;10795;50.796;3.860;2023-11-21T13:28:47;11.70;99.90
21271;DHT22;10795;50.796;3.860;2023-11-21T13:31:13;11.70;99.90
21271;DHT22;10795;50.796;3.860;2023-11-21T13:33:52;11.90;99.90
21271;DHT22;10795;50.796;3.860;2023-11-21T13:36:24;11.70;99.90
21271;DHT22;10795;50.796;3.860;2023-11-21T13:38:50;11.70;99.90
21271;DHT22;10795;50.796;3.860;2023-11-21T13:41:18;11.60;99.90
21271;DHT22;10795;50.796;3.860;2023-11-21T13:43:44;11.60;99.90
21271;DHT22;10795;50.796;3.860;2023-11-21T13:46:14;11.60;99.90
21271;DHT22;10795;50.796;3.860;2023-11-21T13:48:45;11.50;99.90
21271;DHT22;10795;50.796;3.860;2023-11-21T13:51:19;11.40;99.90
21271;DHT22;10795;50.796;3.860;2023-11-21T13:53:46;11.70;99.90
21271;DHT22;10795;50.796;3.860;2023-11-21T13:56:18;11.70;99.90
21271;DHT22;10795;50.796;3.860;2023-11-21T13:58:52;11.60;99.90
21271;DHT22;10795;50.796;3.860;2023-11-21T14:01:18;11.60;99.90
21271;DHT22;10795;50.796;3.860;2023-11-21T14:04:06;11.50;99.90
21271;DHT22;10795;50.796;3.860;2023-11-21T14:06:50;11.50;99.90
21271;DHT22;10795;50.796;3.860;2023-11-21T14:09:19;11.60;99.90
21271;DHT22;10795;50.796;3.860;2023-11-21T14:11:54;11.40;99.90
21271;DHT22;10795;50.796;3.860;2023-11-21T14:14:22;11.40;99.90
21271;DHT22;10795;50.796;3.860;2023-11-21T14:16:50;11.70;99.90
21271;DHT22;10795;50.796;3.860;2023-11-21T14:19:19;11.60;99.90
21271;DHT22;10795;50.796;3.860;2023-11-21T14:21:44;11.70;99.90
21271;DHT22;10795;50.796;3.860;2023-11-21T14:24:13;11.60;99.90
21271;DHT22;10795;50.796;3.860;2023-11-21T14:26:42;11.40;99.90
21271;DHT22;10795;50.796;3.860;2023-11-21T14:29:08;11.30;99.90
21271;DHT22;10795;50.796;3.860;2023-11-21T14:31:34;11.40;99.90
21271;DHT22;10795;50.796;3.860;2023-11-21T14:34:00;11.30;99.90
21271;DHT22;10795;50.796;3.860;2023-11-21T14:36:31;11.40;99.90
21271;DHT22;10795;50.796;3.860;2023-11-21T14:38:57;11.40;99.90
21271;DHT22;10795;50.796;3.860;2023-11-21T14:41:23;11.40;99.90
21271;DHT22;10795;50.796;3.860;2023-11-21T14:43:53;11.40;99.90
21271;DHT22;10795;50.796;3.860;2023-11-21T14:46:20;11.30;99.90
21271;DHT22;10795;50.796;3.860;2023-11-21T14:48:46;11.30;99.90
21271;DHT22;10795;50.796;3.860;2023-11-21T14:51:27;11.40;99.90
21271;DHT22;10795;50.796;3.860;2023-11-21T14:53:59;11.40;99.90
21271;DHT22;10795;50.796;3.860;2023-11-21T14:56:35;11.50;99.90
21271;DHT22;10795;50.796;3.860;2023-11-21T14:59:07;11.40;99.90
21271;DHT22;10795;50.796;3.860;2023-11-21T15:01:41;11.20;99.90
21271;DHT22;10795;50.796;3.860;2023-11-21T15:04:20;11.30;99.90
21271;DHT22;10795;50.796;3.860;2023-11-21T15:07:05;11.20;99.90
21271;DHT22;10795;50.796;3.860;2023-11-21T15:09:31;11.30;99.90
21271;DHT22;10795;50.796;3.860;2023-11-21T15:11:57;11.30;99.90
21271;DHT22;10795;50.796;3.860;2023-11-21T15:14:29;11.10;99.90
21271;DHT22;10795;50.796;3.860;2023-11-21T15:17:00;11.20;99.90
21271;DHT22;10795;50.796;3.860;2023-11-21T15:19:26;11.00;99.90
21271;DHT22;10795;50.796;3.860;2023-11-21T15:21:55;11.00;99.90
21271;DHT22;10795;50.796;3.860;2023-11-21T15:24:21;11.00;99.90
21271;DHT22;10795;50.796;3.860;2023-11-21T15:26:47;11.10;99.90
21271;DHT22;10795;50.796;3.860;2023-11-21T15:29:12;11.10;99.90
21271;DHT22;10795;50.796;3.860;2023-11-21T15:31:42;11.20;99.90
21271;DHT22;10795;50.796;3.860;2023-11-21T15:34:15;11.00;99.90
21271;DHT22;10795;50.796;3.860;2023-11-21T15:36:41;11.00;99.90
21271;DHT22;10795;50.796;3.860;2023-11-21T15:39:09;11.00;99.90
21271;DHT22;10795;50.796;3.860;2023-11-21T15:41:38;11.00;99.90
21271;DHT22;10795;50.796;3.860;2023-11-21T15:44:05;10.80;99.90
21271;DHT22;10795;50.796;3.860;2023-11-21T15:46:33;10.90;99.90
21271;DHT22;10795;50.796;3.860;2023-11-21T15:48:59;11.00;99.90
21271;DHT22;10795;50.796;3.860;2023-11-21T15:51:29;10.80;99.90
21271;DHT22;10795;50.796;3.860;2023-11-21T15:53:55;10.80;99.90
21271;DHT22;10795;50.796;3.860;2023-11-21T15:56:20;10.90;99.90
21271;DHT22;10795;50.796;3.860;2023-11-21T15:58:46;10.90;99.90
21271;DHT22;10795;50.796;3.860;2023-11-21T16:01:12;10.70;99.90
21271;DHT22;10795;50.796;3.860;2023-11-21T16:03:41;10.70;99.90